sensor_id;sensor_type;location;lat;lon;timestamp;pressure;altitude;pressure_sealevel;temperature;humidity
61337;BME280;47212;41.326;2.104;2022-07-19T00:05:05;101575.69;;;27.50;70.39
61337;BME280;47212;41.326;2.104;2022-07-19T00:10:13;101572.44;;;27.48;70.43
61337;BME280;47212;41.326;2.104;2022-07-19T00:15:18;101569.19;;;27.46;70.64
61337;BME280;47212;41.326;2.104;2022-07-19T00:20:23;101568.84;;;27.47;70.45
61337;BME280;47212;41.326;2.104;2022-07-19T00:25:30;101574.06;;;27.49;70.54
61337;BME280;47212;41.326;2.104;2022-07-19T00:30:44;101565.22;;;27.47;70.70
61337;BME280;47212;41.326;2.104;2022-07-19T00:36:02;101558.00;;;27.46;70.47
61337;BME280;47212;41.326;2.104;2022-07-19T00:41:10;101557.19;;;27.45;70.84
61337;BME280;47212;41.326;2.104;2022-07-19T00:46:21;101552.31;;;27.42;70.65
61337;BME280;47212;41.326;2.104;2022-07-19T00:51:35;101547.53;;;27.43;70.53
61337;BME280;47212;41.326;2.104;2022-07-19T00:56:42;101542.75;;;27.43;70.72
61337;BME280;47212;41.326;2.104;2022-07-19T01:01:48;101554.03;;;27.47;70.29
61337;BME280;47212;41.326;2.104;2022-07-19T01:07:11;101548.44;;;27.47;70.46
61337;BME280;47212;41.326;2.104;2022-07-19T01:12:41;101549.34;;;27.51;70.47
61337;BME280;47212;41.326;2.104;2022-07-19T01:21:24;101539.78;;;27.52;70.18
61337;BME280;47212;41.326;2.104;2022-07-19T01:28:58;101547.53;;;27.43;70.40
61337;BME280;47212;41.326;2.104;2022-07-19T01:34:14;101543.47;;;27.40;70.41
61337;BME280;47212;41.326;2.104;2022-07-19T01:39:16;101535.25;;;27.32;70.97
61337;BME280;47212;41.326;2.104;2022-07-19T01:44:21;101540.63;;;27.24;70.87
61337;BME280;47212;41.326;2.104;2022-07-19T01:49:40;101539.72;;;27.20;70.83
61337;BME280;47212;41.326;2.104;2022-07-19T01:54:47;101535.66;;;27.18;70.96
61337;BME280;47212;41.326;2.104;2022-07-19T01:59:51;101540.34;;;27.14;70.97
61337;BME280;47212;41.326;2.104;2022-07-19T02:04:59;101541.16;;;27.14;71.23
61337;BME280;47212;41.326;2.104;2022-07-19T02:10:24;101537.19;;;27.15;71.12
61337;BME280;47212;41.326;2.104;2022-07-19T02:15:30;101540.44;;;27.17;71.21
61337;BME280;47212;41.326;2.104;2022-07-19T02:20:37;101536.72;;;27.13;71.14
61337;BME280;47212;41.326;2.104;2022-07-19T02:25:45;101536.28;;;27.11;71.10
61337;BME280;47212;41.326;2.104;2022-07-19T02:30:56;101528.69;;;27.12;71.10
61337;BME280;47212;41.326;2.104;2022-07-19T02:36:09;101528.34;;;27.13;70.76
61337;BME280;47212;41.326;2.104;2022-07-19T02:41:12;101525.56;;;27.13;70.72
61337;BME280;47212;41.326;2.104;2022-07-19T02:46:23;101520.41;;;27.15;70.93
61337;BME280;47212;41.326;2.104;2022-07-19T02:51:30;101520.41;;;27.15;70.69
61337;BME280;47212;41.326;2.104;2022-07-19T02:56:39;101517.88;;;27.10;70.80
61337;BME280;47212;41.326;2.104;2022-07-19T03:01:42;101516.50;;;27.04;71.15
61337;BME280;47212;41.326;2.104;2022-07-19T03:07:26;101517.94;;;26.98;71.13
61337;BME280;47212;41.326;2.104;2022-07-19T03:12:28;101519.78;;;26.94;71.18
61337;BME280;47212;41.326;2.104;2022-07-19T03:17:30;101520.03;;;26.89;71.70
61337;BME280;47212;41.326;2.104;2022-07-19T03:22:32;101516.06;;;26.78;71.38
61337;BME280;47212;41.326;2.104;2022-07-19T03:27:38;101513.78;;;26.67;72.07
61337;BME280;47212;41.326;2.104;2022-07-19T03:32:41;101518.69;;;26.58;71.10
61337;BME280;47212;41.326;2.104;2022-07-19T03:37:43;101519.28;;;26.52;71.16
61337;BME280;47212;41.326;2.104;2022-07-19T03:42:45;101511.72;;;26.52;71.38
61337;BME280;47212;41.326;2.104;2022-07-19T03:47:47;101510.44;;;26.50;71.19
61337;BME280;47212;41.326;2.104;2022-07-19T03:52:49;101527.19;;;26.50;71.05
61337;BME280;47212;41.326;2.104;2022-07-19T03:57:52;101518.34;;;26.48;71.18
61337;BME280;47212;41.326;2.104;2022-07-19T04:03:02;101522.19;;;26.43;71.03
61337;BME280;47212;41.326;2.104;2022-07-19T04:08:04;101522.78;;;26.37;70.75
61337;BME280;47212;41.326;2.104;2022-07-19T04:13:09;101528.25;;;26.33;70.99
61337;BME280;47212;41.326;2.104;2022-07-19T04:18:14;101525.94;;;26.35;70.52
61337;BME280;47212;41.326;2.104;2022-07-19T04:23:17;101529.06;;;26.33;70.67
61337;BME280;47212;41.326;2.104;2022-07-19T04:28:19;101528.34;;;26.24;70.61
61337;BME280;47212;41.326;2.104;2022-07-19T04:33:22;101524.53;;;26.17;70.44
61337;BME280;47212;41.326;2.104;2022-07-19T04:38:25;101539.53;;;26.12;70.44
61337;BME280;47212;41.326;2.104;2022-07-19T04:43:27;101542.66;;;26.11;70.40
61337;BME280;47212;41.326;2.104;2022-07-19T04:48:30;101538.59;;;26.08;70.35
61337;BME280;47212;41.326;2.104;2022-07-19T04:53:39;101535.56;;;26.01;69.91
61337;BME280;47212;41.326;2.104;2022-07-19T04:58:44;101534.94;;;25.95;69.87
61337;BME280;47212;41.326;2.104;2022-07-19T05:03:49;101546.56;;;25.97;69.52
61337;BME280;47212;41.326;2.104;2022-07-19T05:08:54;101544.94;;;25.96;69.75
61337;BME280;47212;41.326;2.104;2022-07-19T05:14:00;101547.63;;;25.93;69.81
61337;BME280;47212;41.326;2.104;2022-07-19T05:19:05;101550.75;;;25.91;69.55
61337;BME280;47212;41.326;2.104;2022-07-19T05:24:11;101546.69;;;25.89;69.62
61337;BME280;47212;41.326;2.104;2022-07-19T05:29:13;101558.31;;;25.91;69.67
61337;BME280;47212;41.326;2.104;2022-07-19T05:34:17;101562.72;;;25.92;69.30
61337;BME280;47212;41.326;2.104;2022-07-19T05:39:19;101566.56;;;25.99;69.34
61337;BME280;47212;41.326;2.104;2022-07-19T05:44:33;101568.47;;;26.08;69.35
61337;BME280;47212;41.326;2.104;2022-07-19T05:49:37;101574.50;;;26.10;69.24
61337;BME280;47212;41.326;2.104;2022-07-19T05:54:40;101578.47;;;26.09;69.19
61337;BME280;47212;41.326;2.104;2022-07-19T05:59:43;101580.09;;;26.10;69.13
61337;BME280;47212;41.326;2.104;2022-07-19T06:05:01;101577.31;;;26.10;69.19
61337;BME280;47212;41.326;2.104;2022-07-19T06:10:07;101570.69;;;26.14;69.24
61337;BME280;47212;41.326;2.104;2022-07-19T06:15:10;101574.41;;;26.18;68.92
61337;BME280;47212;41.326;2.104;2022-07-19T06:20:12;101569.41;;;26.24;68.65
61337;BME280;47212;41.326;2.104;2022-07-19T06:25:17;101567.19;;;26.29;68.21
61337;BME280;47212;41.326;2.104;2022-07-19T06:30:19;101561.75;;;26.33;68.14
61337;BME280;47212;41.326;2.104;2022-07-19T06:35:22;101561.06;;;26.36;67.86
61337;BME280;47212;41.326;2.104;2022-07-19T06:40:31;101564.44;;;26.42;67.60
61337;BME280;47212;41.326;2.104;2022-07-19T06:45:35;101572.22;;;26.48;67.37
61337;BME280;47212;41.326;2.104;2022-07-19T06:50:38;101563.72;;;26.57;67.08
61337;BME280;47212;41.326;2.104;2022-07-19T06:55:48;101567.06;;;26.75;66.99
61337;BME280;47212;41.326;2.104;2022-07-19T07:00:58;101564.22;;;26.87;66.45
61337;BME280;47212;41.326;2.104;2022-07-19T07:06:05;101568.69;;;27.00;66.14
61337;BME280;47212;41.326;2.104;2022-07-19T07:11:07;101566.75;;;27.16;65.87
61337;BME280;47212;41.326;2.104;2022-07-19T07:16:09;101572.03;;;27.34;65.85
61337;BME280;47212;41.326;2.104;2022-07-19T07:21:14;101563.34;;;27.51;65.38
61337;BME280;47212;41.326;2.104;2022-07-19T07:26:18;101561.78;;;27.66;65.46
61337;BME280;47212;41.326;2.104;2022-07-19T07:31:30;101575.09;;;27.84;65.35
61337;BME280;47212;41.326;2.104;2022-07-19T07:36:32;101571.47;;;28.00;65.44
61337;BME280;47212;41.326;2.104;2022-07-19T07:41:40;101567.50;;;28.01;65.72
61337;BME280;47212;41.326;2.104;2022-07-19T07:47:03;101567.41;;;28.13;65.49
61337;BME280;47212;41.326;2.104;2022-07-19T07:52:10;101570.50;;;28.23;65.84
61337;BME280;47212;41.326;2.104;2022-07-19T07:57:14;101566.06;;;28.38;66.46
61337;BME280;47212;41.326;2.104;2022-07-19T08:09:09;101566.81;;;28.86;65.35
61337;BME280;47212;41.326;2.104;2022-07-19T08:15:01;101561.84;;;28.79;65.68
61337;BME280;47212;41.326;2.104;2022-07-19T08:21:00;101556.00;;;28.69;65.64
61337;BME280;47212;41.326;2.104;2022-07-19T08:26:59;101554.19;;;28.61;65.55
61337;BME280;47212;41.326;2.104;2022-07-19T08:32:51;101560.41;;;28.70;65.25
61337;BME280;47212;41.326;2.104;2022-07-19T08:38:43;101563.09;;;28.82;64.80
61337;BME280;47212;41.326;2.104;2022-07-19T08:44:35;101570.69;;;28.81;64.58
61337;BME280;47212;41.326;2.104;2022-07-19T08:49:45;101564.81;;;28.87;64.33
61337;BME280;47212;41.326;2.104;2022-07-19T08:54:50;101573.16;;;29.02;63.66
61337;BME280;47212;41.326;2.104;2022-07-19T09:00:11;101566.97;;;29.12;63.27
61337;BME280;47212;41.326;2.104;2022-07-19T09:06:05;101572.13;;;29.30;63.08
61337;BME280;47212;41.326;2.104;2022-07-19T09:11:08;101576.56;;;29.31;63.48
61337;BME280;47212;41.326;2.104;2022-07-19T09:17:18;101579.06;;;29.36;63.34
61337;BME280;47212;41.326;2.104;2022-07-19T09:23:26;101588.47;;;29.43;63.05
61337;BME280;47212;41.326;2.104;2022-07-19T09:29:37;101588.09;;;29.45;63.35
61337;BME280;47212;41.326;2.104;2022-07-19T09:35:42;101588.22;;;29.33;63.85
61337;BME280;47212;41.326;2.104;2022-07-19T09:41:57;101583.41;;;29.33;63.48
61337;BME280;47212;41.326;2.104;2022-07-19T09:48:11;101585.28;;;29.45;63.05
61337;BME280;47212;41.326;2.104;2022-07-19T09:53:18;101589.34;;;29.47;62.81
61337;BME280;47212;41.326;2.104;2022-07-19T09:58:21;101590.69;;;29.54;62.94
61337;BME280;47212;41.326;2.104;2022-07-19T10:03:25;101591.25;;;29.43;62.61
61337;BME280;47212;41.326;2.104;2022-07-19T10:08:38;101595.53;;;29.37;62.91
61337;BME280;47212;41.326;2.104;2022-07-19T10:13:45;101590.94;;;29.29;63.30
61337;BME280;47212;41.326;2.104;2022-07-19T10:19:08;101591.03;;;29.33;61.62
61337;BME280;47212;41.326;2.104;2022-07-19T10:24:51;101585.03;;;29.34;62.24
61337;BME280;47212;41.326;2.104;2022-07-19T10:35:30;101587.41;;;29.13;62.46
61337;BME280;47212;41.326;2.104;2022-07-19T10:51:30;101583.50;;;29.37;64.73
61337;BME280;47212;41.326;2.104;2022-07-19T10:56:39;101584.56;;;29.48;62.94
61337;BME280;47212;41.326;2.104;2022-07-19T11:01:59;101582.47;;;29.64;62.49
61337;BME280;47212;41.326;2.104;2022-07-19T11:07:25;101569.31;;;29.68;60.88
61337;BME280;47212;41.326;2.104;2022-07-19T11:12:33;101572.38;;;29.83;57.89
61337;BME280;47212;41.326;2.104;2022-07-19T11:17:38;101582.88;;;29.86;60.70
61337;BME280;47212;41.326;2.104;2022-07-19T11:22:44;101580.44;;;29.84;60.49
61337;BME280;47212;41.326;2.104;2022-07-19T11:27:50;101572.81;;;29.85;60.78
61337;BME280;47212;41.326;2.104;2022-07-19T11:32:55;101569.97;;;29.81;58.95
61337;BME280;47212;41.326;2.104;2022-07-19T11:37:59;101566.09;;;29.89;59.98
61337;BME280;47212;41.326;2.104;2022-07-19T11:43:08;101566.16;;;29.93;59.67
61337;BME280;47212;41.326;2.104;2022-07-19T11:48:24;101553.69;;;29.90;59.90
61337;BME280;47212;41.326;2.104;2022-07-19T11:53:32;101557.13;;;29.80;60.35
61337;BME280;47212;41.326;2.104;2022-07-19T11:58:40;101558.09;;;29.68;59.54
61337;BME280;47212;41.326;2.104;2022-07-19T12:04:02;101554.50;;;29.68;61.37
61337;BME280;47212;41.326;2.104;2022-07-19T12:09:25;101542.44;;;29.67;61.56
61337;BME280;47212;41.326;2.104;2022-07-19T12:14:32;101532.97;;;29.75;61.41
61337;BME280;47212;41.326;2.104;2022-07-19T12:19:51;101542.44;;;29.67;60.93
61337;BME280;47212;41.326;2.104;2022-07-19T12:30:18;101521.00;;;29.78;61.64
61337;BME280;47212;41.326;2.104;2022-07-19T12:35:39;101529.41;;;29.78;59.54
61337;BME280;47212;41.326;2.104;2022-07-19T12:40:48;101533.84;;;29.79;61.88
61337;BME280;47212;41.326;2.104;2022-07-19T12:45:59;101533.03;;;29.79;59.04
61337;BME280;47212;41.326;2.104;2022-07-19T12:51:05;101524.25;;;29.80;60.72
61337;BME280;47212;41.326;2.104;2022-07-19T12:56:07;101515.00;;;29.80;60.74
61337;BME280;47212;41.326;2.104;2022-07-19T13:01:10;101504.16;;;29.78;61.19
61337;BME280;47212;41.326;2.104;2022-07-19T13:06:14;101498.28;;;29.87;61.85
61337;BME280;47212;41.326;2.104;2022-07-19T13:11:17;101490.00;;;29.94;60.74
61337;BME280;47212;41.326;2.104;2022-07-19T13:16:22;101490.75;;;29.91;61.63
61337;BME280;47212;41.326;2.104;2022-07-19T13:21:27;101486.25;;;29.87;62.49
61337;BME280;47212;41.326;2.104;2022-07-19T13:26:35;101493.81;;;29.83;62.35
61337;BME280;47212;41.326;2.104;2022-07-19T13:31:49;101493.63;;;29.72;60.61
61337;BME280;47212;41.326;2.104;2022-07-19T13:36:56;101496.81;;;29.70;61.11
61337;BME280;47212;41.326;2.104;2022-07-19T13:41:59;101492.50;;;29.76;59.64
61337;BME280;47212;41.326;2.104;2022-07-19T13:47:07;101491.31;;;29.77;60.06
61337;BME280;47212;41.326;2.104;2022-07-19T13:52:11;101484.84;;;29.73;59.77
61337;BME280;47212;41.326;2.104;2022-07-19T13:57:37;101482.47;;;29.75;59.55
61337;BME280;47212;41.326;2.104;2022-07-19T14:02:48;101475.72;;;29.80;58.53
61337;BME280;47212;41.326;2.104;2022-07-19T14:08:00;101481.47;;;29.87;59.56
61337;BME280;47212;41.326;2.104;2022-07-19T14:13:04;101483.88;;;29.89;59.09
61337;BME280;47212;41.326;2.104;2022-07-19T14:18:28;101478.72;;;29.91;59.47
61337;BME280;47212;41.326;2.104;2022-07-19T14:23:41;101478.28;;;29.89;59.91
61337;BME280;47212;41.326;2.104;2022-07-19T14:28:45;101474.47;;;29.77;60.43
61337;BME280;47212;41.326;2.104;2022-07-19T14:33:53;101471.31;;;29.79;59.97
61337;BME280;47212;41.326;2.104;2022-07-19T14:39:15;101470.94;;;29.80;62.37
61337;BME280;47212;41.326;2.104;2022-07-19T14:44:26;101461.31;;;29.82;61.59
61337;BME280;47212;41.326;2.104;2022-07-19T14:49:31;101468.13;;;29.80;61.52
61337;BME280;47212;41.326;2.104;2022-07-19T14:55:33;101456.13;;;29.84;61.72
61337;BME280;47212;41.326;2.104;2022-07-19T15:00:37;101452.25;;;29.92;60.38
61337;BME280;47212;41.326;2.104;2022-07-19T15:05:43;101451.00;;;29.89;60.87
61337;BME280;47212;41.326;2.104;2022-07-19T15:10:46;101446.09;;;29.83;60.56
61337;BME280;47212;41.326;2.104;2022-07-19T15:15:48;101452.78;;;29.74;62.28
61337;BME280;47212;41.326;2.104;2022-07-19T15:20:51;101455.91;;;29.69;61.99
61337;BME280;47212;41.326;2.104;2022-07-19T15:25:55;101457.53;;;29.70;61.92
61337;BME280;47212;41.326;2.104;2022-07-19T15:30:58;101440.69;;;29.70;61.20
61337;BME280;47212;41.326;2.104;2022-07-19T15:36:00;101446.75;;;29.72;60.29
61337;BME280;47212;41.326;2.104;2022-07-19T15:41:09;101434.38;;;29.77;61.20
61337;BME280;47212;41.326;2.104;2022-07-19T15:47:16;101429.91;;;29.72;60.55
61337;BME280;47212;41.326;2.104;2022-07-19T15:53:18;101426.16;;;29.65;61.45
61337;BME280;47212;41.326;2.104;2022-07-19T15:59:28;101421.38;;;29.65;57.41
61337;BME280;47212;41.326;2.104;2022-07-19T16:05:23;101413.38;;;29.67;60.37
61337;BME280;47212;41.326;2.104;2022-07-19T16:10:26;101407.34;;;29.65;58.99
61337;BME280;47212;41.326;2.104;2022-07-19T16:15:28;101393.00;;;29.70;58.81
61337;BME280;47212;41.326;2.104;2022-07-19T16:20:33;101392.66;;;29.75;56.43
61337;BME280;47212;41.326;2.104;2022-07-19T16:25:35;101383.13;;;29.80;55.38
61337;BME280;47212;41.326;2.104;2022-07-19T16:30:37;101377.63;;;29.87;54.27
61337;BME280;47212;41.326;2.104;2022-07-19T16:35:40;101376.81;;;29.87;54.14
61337;BME280;47212;41.326;2.104;2022-07-19T16:40:42;101376.38;;;29.85;54.16
61337;BME280;47212;41.326;2.104;2022-07-19T16:46:00;101372.00;;;29.87;57.48
61337;BME280;47212;41.326;2.104;2022-07-19T16:51:11;101359.22;;;29.90;57.50
61337;BME280;47212;41.326;2.104;2022-07-19T16:56:25;101354.31;;;29.83;56.87
61337;BME280;47212;41.326;2.104;2022-07-19T17:01:33;101353.81;;;29.77;59.08
61337;BME280;47212;41.326;2.104;2022-07-19T17:06:43;101355.28;;;29.68;60.22
61337;BME280;47212;41.326;2.104;2022-07-19T17:11:56;101357.22;;;29.64;59.32
61337;BME280;47212;41.326;2.104;2022-07-19T17:17:00;101360.41;;;29.62;60.23
61337;BME280;47212;41.326;2.104;2022-07-19T17:22:03;101386.03;;;29.61;60.93
61337;BME280;47212;41.326;2.104;2022-07-19T17:27:17;101372.38;;;29.59;61.00
61337;BME280;47212;41.326;2.104;2022-07-19T17:32:22;101381.97;;;29.58;62.40
61337;BME280;47212;41.326;2.104;2022-07-19T17:37:26;101397.19;;;29.57;62.71
61337;BME280;47212;41.326;2.104;2022-07-19T17:42:28;101379.44;;;29.50;62.85
61337;BME280;47212;41.326;2.104;2022-07-19T17:47:36;101390.56;;;29.46;64.26
61337;BME280;47212;41.326;2.104;2022-07-19T17:52:38;101392.03;;;29.40;64.72
61337;BME280;47212;41.326;2.104;2022-07-19T17:57:41;101384.75;;;29.35;64.18
61337;BME280;47212;41.326;2.104;2022-07-19T18:02:43;101388.25;;;29.29;65.04
61337;BME280;47212;41.326;2.104;2022-07-19T18:07:55;101387.75;;;29.23;66.07
61337;BME280;47212;41.326;2.104;2022-07-19T18:13:00;101383.69;;;29.21;67.42
61337;BME280;47212;41.326;2.104;2022-07-19T18:18:04;101382.25;;;29.07;68.59
61337;BME280;47212;41.326;2.104;2022-07-19T18:23:07;101384.19;;;29.03;69.05
61337;BME280;47212;41.326;2.104;2022-07-19T18:28:13;101387.31;;;28.98;69.88
61337;BME280;47212;41.326;2.104;2022-07-19T18:33:21;101390.41;;;28.93;70.23
61337;BME280;47212;41.326;2.104;2022-07-19T18:38:28;101387.47;;;28.86;71.08
61337;BME280;47212;41.326;2.104;2022-07-19T18:43:31;101385.25;;;28.76;71.20
61337;BME280;47212;41.326;2.104;2022-07-19T18:48:36;101392.41;;;28.73;72.12
61337;BME280;47212;41.326;2.104;2022-07-19T18:53:44;101401.63;;;28.74;72.17
61337;BME280;47212;41.326;2.104;2022-07-19T18:58:48;101389.59;;;28.73;72.05
61337;BME280;47212;41.326;2.104;2022-07-19T19:03:54;101404.41;;;28.74;72.32
61337;BME280;47212;41.326;2.104;2022-07-19T19:08:59;101393.94;;;28.71;72.44
61337;BME280;47212;41.326;2.104;2022-07-19T19:14:24;101411.50;;;28.68;72.48
61337;BME280;47212;41.326;2.104;2022-07-19T19:19:33;101408.19;;;28.62;72.66
61337;BME280;47212;41.326;2.104;2022-07-19T19:24:39;101410.50;;;28.60;72.48
61337;BME280;47212;41.326;2.104;2022-07-19T19:29:42;101414.13;;;28.61;71.88
61337;BME280;47212;41.326;2.104;2022-07-19T19:34:47;101418.09;;;28.60;71.75
61337;BME280;47212;41.326;2.104;2022-07-19T19:40:00;101422.53;;;28.61;70.90
61337;BME280;47212;41.326;2.104;2022-07-19T19:45:09;101420.47;;;28.58;71.66
61337;BME280;47212;41.326;2.104;2022-07-19T19:50:16;101423.13;;;28.50;72.44
61337;BME280;47212;41.326;2.104;2022-07-19T19:55:18;101421.50;;;28.49;72.69
61337;BME280;47212;41.326;2.104;2022-07-19T20:00:21;101419.88;;;28.48;72.85
61337;BME280;47212;41.326;2.104;2022-07-19T20:05:23;101428.28;;;28.48;72.78
61337;BME280;47212;41.326;2.104;2022-07-19T20:10:35;101442.28;;;28.48;72.98
61337;BME280;47212;41.326;2.104;2022-07-19T20:15:38;101454.38;;;28.52;72.67
61337;BME280;47212;41.326;2.104;2022-07-19T20:20:49;101465.72;;;28.60;72.04
61337;BME280;47212;41.326;2.104;2022-07-19T20:26:01;101460.59;;;28.62;70.86
61337;BME280;47212;41.326;2.104;2022-07-19T20:31:09;101479.03;;;28.63;69.84
61337;BME280;47212;41.326;2.104;2022-07-19T20:36:21;101474.13;;;28.60;67.36
61337;BME280;47212;41.326;2.104;2022-07-19T20:41:23;101478.22;;;28.62;66.25
61337;BME280;47212;41.326;2.104;2022-07-19T20:46:30;101475.94;;;28.68;66.41
61337;BME280;47212;41.326;2.104;2022-07-19T20:51:42;101480.88;;;28.74;66.17
61337;BME280;47212;41.326;2.104;2022-07-19T20:56:46;101483.75;;;28.78;66.18
61337;BME280;47212;41.326;2.104;2022-07-19T21:01:54;101484.03;;;28.73;65.24
61337;BME280;47212;41.326;2.104;2022-07-19T21:06:56;101472.25;;;28.64;65.08
61337;BME280;47212;41.326;2.104;2022-07-19T21:12:00;101471.31;;;28.60;65.26
61337;BME280;47212;41.326;2.104;2022-07-19T21:17:18;101469.56;;;28.51;66.21
61337;BME280;47212;41.326;2.104;2022-07-19T21:22:20;101479.06;;;28.47;65.80
61337;BME280;47212;41.326;2.104;2022-07-19T21:27:33;101471.31;;;28.40;65.72
61337;BME280;47212;41.326;2.104;2022-07-19T21:32:36;101471.22;;;28.37;66.06
61337;BME280;47212;41.326;2.104;2022-07-19T21:37:40;101470.88;;;28.38;65.73
61337;BME280;47212;41.326;2.104;2022-07-19T21:42:42;101475.66;;;28.38;65.84
61337;BME280;47212;41.326;2.104;2022-07-19T21:47:44;101484.06;;;28.38;66.47
61337;BME280;47212;41.326;2.104;2022-07-19T21:52:46;101478.44;;;28.38;66.51
61337;BME280;47212;41.326;2.104;2022-07-19T21:57:53;101484.56;;;28.43;66.21
61337;BME280;47212;41.326;2.104;2022-07-19T22:02:56;101482.22;;;28.45;66.12
61337;BME280;47212;41.326;2.104;2022-07-19T22:08:03;101478.69;;;28.48;65.50
61337;BME280;47212;41.326;2.104;2022-07-19T22:13:19;101467.03;;;28.46;65.51
61337;BME280;47212;41.326;2.104;2022-07-19T22:18:23;101478.53;;;28.41;65.33
61337;BME280;47212;41.326;2.104;2022-07-19T22:23:26;101477.19;;;28.35;64.42
61337;BME280;47212;41.326;2.104;2022-07-19T22:28:40;101470.63;;;28.28;64.67
61337;BME280;47212;41.326;2.104;2022-07-19T22:33:43;101471.25;;;28.21;64.74
61337;BME280;47212;41.326;2.104;2022-07-19T22:38:46;101473.50;;;28.15;64.75
61337;BME280;47212;41.326;2.104;2022-07-19T22:43:51;101478.66;;;28.13;64.08
61337;BME280;47212;41.326;2.104;2022-07-19T22:48:53;101491.47;;;28.14;63.89
61337;BME280;47212;41.326;2.104;2022-07-19T22:54:03;101488.31;;;28.16;63.26
61337;BME280;47212;41.326;2.104;2022-07-19T22:59:09;101484.72;;;28.15;63.16
61337;BME280;47212;41.326;2.104;2022-07-19T23:04:16;101487.59;;;28.19;62.97
61337;BME280;47212;41.326;2.104;2022-07-19T23:09:20;101492.56;;;28.26;63.21
61337;BME280;47212;41.326;2.104;2022-07-19T23:14:27;101509.44;;;28.29;62.52
61337;BME280;47212;41.326;2.104;2022-07-19T23:19:29;101501.59;;;28.19;60.03
61337;BME280;47212;41.326;2.104;2022-07-19T23:24:33;101495.00;;;28.11;59.18
61337;BME280;47212;41.326;2.104;2022-07-19T23:29:36;101495.72;;;28.08;59.31
61337;BME280;47212;41.326;2.104;2022-07-19T23:34:38;101496.53;;;28.09;59.24
61337;BME280;47212;41.326;2.104;2022-07-19T23:39:41;101490.13;;;28.08;58.39
61337;BME280;47212;41.326;2.104;2022-07-19T23:44:55;101495.00;;;28.11;57.98
61337;BME280;47212;41.326;2.104;2022-07-19T23:49:58;101496.72;;;28.16;58.53
61337;BME280;47212;41.326;2.104;2022-07-19T23:55:01;101493.19;;;28.19;58.66
